createdAt,value
2018-02-01T00:01:28.822Z,99177.44
2018-02-01T00:03:57.811Z,99173.41
2018-02-01T00:06:26.304Z,99185.49
2018-02-01T00:08:55.079Z,99175.41
2018-02-01T00:11:23.661Z,99179.73
2018-02-01T00:13:52.141Z,99179.80
2018-02-01T00:16:20.940Z,99181.27
2018-02-01T00:18:49.469Z,99181.27
2018-02-01T00:21:17.994Z,99179.00
2018-02-01T00:23:46.475Z,99173.25
2018-02-01T00:26:15.133Z,99173.38
2018-02-01T00:28:43.568Z,99173.46
2018-02-01T00:31:11.996Z,99164.46
2018-02-01T00:33:40.676Z,99164.73
2018-02-01T00:36:09.085Z,99170.23
2018-02-01T00:38:37.516Z,99173.16
2018-02-01T00:41:06.325Z,99179.23
2018-02-01T00:43:34.829Z,99169.25
2018-02-01T00:46:03.288Z,99168.67
2018-02-01T00:48:31.889Z,99167.78
2018-02-01T00:51:00.327Z,99172.69
2018-02-01T00:53:28.776Z,99167.59
2018-02-01T00:55:57.441Z,99165.86
2018-02-01T00:58:25.849Z,99162.64
2018-02-01T01:00:54.339Z,99159.18
2018-02-01T01:03:23.092Z,99166.33
2018-02-01T01:05:51.545Z,99166.94
2018-02-01T01:08:20.053Z,99160.58
2018-02-01T01:10:48.661Z,99157.16
2018-02-01T01:13:17.595Z,99153.64
2018-02-01T01:15:46.011Z,99167.07
2018-02-01T01:18:14.475Z,99162.41
2018-02-01T01:20:42.907Z,99154.22
2018-02-01T01:23:11.350Z,99155.81
2018-02-01T01:25:39.784Z,99149.23
2018-02-01T01:28:08.175Z,99148.34
2018-02-01T01:30:36.589Z,99140.03
2018-02-01T01:33:05.029Z,99137.77
2018-02-01T01:35:33.476Z,99131.02
2018-02-01T01:38:01.879Z,99138.73
2018-02-01T01:40:30.461Z,99140.00
2018-02-01T01:42:58.957Z,99137.73
2018-02-01T01:45:27.367Z,99142.73
2018-02-01T01:47:55.878Z,99135.80
2018-02-01T01:50:24.286Z,99130.36
2018-02-01T01:52:52.713Z,99137.91
2018-02-01T01:55:21.260Z,99143.03
2018-02-01T01:57:50.579Z,99138.83
2018-02-01T02:00:19.244Z,99139.50
2018-02-01T02:02:47.928Z,99139.20
2018-02-01T02:05:16.605Z,99134.17
2018-02-01T02:07:45.029Z,99134.39
2018-02-01T02:10:13.500Z,99130.80
2018-02-01T02:12:41.937Z,99128.02
2018-02-01T02:15:10.370Z,99125.59
2018-02-01T02:17:39.626Z,99124.86
2018-02-01T02:20:08.058Z,99119.59
2018-02-01T02:22:36.574Z,99118.10
2018-02-01T02:25:05.157Z,99114.05
2018-02-01T02:27:33.636Z,99117.01
2018-02-01T02:30:02.081Z,99111.56
2018-02-01T02:32:30.557Z,99116.53
2018-02-01T02:34:59.045Z,99117.16
2018-02-01T02:37:27.450Z,99108.68
2018-02-01T02:39:56.116Z,99111.63
2018-02-01T02:42:24.590Z,99115.74
2018-02-01T02:44:53.262Z,99111.52
2018-02-01T02:47:21.819Z,99107.27
2018-02-01T02:49:50.283Z,99108.05
2018-02-01T02:52:18.765Z,99106.30
2018-02-01T02:54:47.496Z,99108.53
2018-02-01T02:57:15.908Z,99110.47
2018-02-01T02:59:44.357Z,99116.06
2018-02-01T03:02:13.020Z,99116.36
2018-02-01T03:04:41.427Z,99118.58
2018-02-01T03:07:10.040Z,99118.10
2018-02-01T03:09:38.473Z,99115.31
2018-02-01T03:12:06.891Z,99115.58
2018-02-01T03:14:35.325Z,99119.20
2018-02-01T03:17:03.764Z,99121.27
2018-02-01T03:19:32.173Z,99122.54
2018-02-01T03:22:00.590Z,99111.61
2018-02-01T03:24:29.293Z,99127.22
2018-02-01T03:26:57.704Z,99120.48
2018-02-01T03:29:26.124Z,99110.45
2018-02-01T03:31:54.614Z,99116.22
2018-02-01T03:34:23.086Z,99109.08
2018-02-01T03:36:51.566Z,99128.48
2018-02-01T03:39:20.047Z,99127.22
2018-02-01T03:41:48.540Z,99119.97
2018-02-01T03:44:16.950Z,99119.95
2018-02-01T03:46:45.449Z,99119.73
2018-02-01T03:49:13.869Z,99123.70
2018-02-01T03:51:42.329Z,99129.28
2018-02-01T03:54:10.831Z,99131.03
2018-02-01T03:56:39.237Z,99128.53
2018-02-01T03:59:07.659Z,99134.19
2018-02-01T04:01:36.096Z,99136.66
2018-02-01T04:04:04.504Z,99133.34
2018-02-01T04:06:32.949Z,99127.76
2018-02-01T04:09:01.412Z,99130.33
2018-02-01T04:11:29.855Z,99122.11
2018-02-01T04:13:58.334Z,99130.17
2018-02-01T04:16:26.977Z,99129.23
2018-02-01T04:18:55.598Z,99118.16
2018-02-01T04:21:24.061Z,99131.64
2018-02-01T04:23:52.977Z,99130.70
2018-02-01T04:26:21.452Z,99134.75
2018-02-01T04:28:49.944Z,99131.59
2018-02-01T04:31:18.473Z,99139.74
2018-02-01T04:33:46.959Z,99135.47
2018-02-01T04:36:15.353Z,99135.92
2018-02-01T04:38:43.802Z,99136.48
2018-02-01T04:41:12.223Z,99146.28
2018-02-01T04:43:40.662Z,99137.19
2018-02-01T04:46:09.105Z,99141.70
2018-02-01T04:48:37.531Z,99136.23
2018-02-01T04:51:06.004Z,99134.43
2018-02-01T04:53:34.433Z,99148.72
2018-02-01T04:56:02.872Z,99137.53
2018-02-01T04:58:31.342Z,99141.70
2018-02-01T05:00:59.839Z,99142.75
2018-02-01T05:03:28.309Z,99151.75
2018-02-01T05:05:56.702Z,99142.28
2018-02-01T05:08:25.231Z,99151.15
2018-02-01T05:10:53.789Z,99144.24
2018-02-01T05:13:22.347Z,99149.34
2018-02-01T05:15:51.039Z,99146.70
2018-02-01T05:18:19.535Z,99146.91
2018-02-01T05:20:48.016Z,99146.08
2018-02-01T05:23:16.530Z,99146.18
2018-02-01T05:25:44.941Z,99155.64
2018-02-01T05:28:13.344Z,99148.31
2018-02-01T05:30:41.893Z,99147.78
2018-02-01T05:33:10.364Z,99147.89
2018-02-01T05:35:38.819Z,99147.58
2018-02-01T05:38:07.294Z,99148.26
2018-02-01T05:40:35.737Z,99144.92
2018-02-01T05:43:04.133Z,99154.84
2018-02-01T05:45:32.703Z,99148.27
2018-02-01T05:48:01.119Z,99149.20
2018-02-01T05:50:29.570Z,99158.05
2018-02-01T05:52:58.123Z,99149.31
2018-02-01T05:55:26.605Z,99154.17
2018-02-01T05:57:55.097Z,99158.43
2018-02-01T06:00:24.656Z,99154.98
2018-02-01T06:02:53.279Z,99156.57
2018-02-01T06:05:21.754Z,99157.41
2018-02-01T06:07:50.442Z,99162.69
2018-02-01T06:10:18.903Z,99162.11
2018-02-01T06:12:47.541Z,99159.00
2018-02-01T06:15:16.195Z,99172.34
2018-02-01T06:17:45.261Z,99167.77
2018-02-01T06:20:14.725Z,99170.18
2018-02-01T06:22:43.352Z,99164.55
2018-02-01T06:25:11.799Z,99166.61
2018-02-01T06:27:40.210Z,99166.50
2018-02-01T06:30:08.772Z,99174.39
2018-02-01T06:32:37.199Z,99170.66
2018-02-01T06:35:05.667Z,99159.91
2018-02-01T06:37:35.003Z,99157.47
2018-02-01T06:40:03.504Z,99156.59
2018-02-01T06:42:31.912Z,99168.70
2018-02-01T06:45:00.702Z,99161.73
2018-02-01T06:47:29.108Z,99164.33
2018-02-01T06:49:57.574Z,99162.31
2018-02-01T06:52:26.167Z,99166.38
2018-02-01T06:54:54.575Z,99168.55
2018-02-01T06:57:23.099Z,99166.33
2018-02-01T06:59:51.578Z,99166.48
2018-02-01T07:02:20.058Z,99166.12
2018-02-01T07:04:49.481Z,99164.74
2018-02-01T07:07:18.106Z,99166.70
2018-02-01T07:09:46.578Z,99175.17
2018-02-01T07:12:15.143Z,99176.29
2018-02-01T07:14:43.629Z,99173.92
2018-02-01T07:17:12.027Z,99180.81
2018-02-01T07:19:40.525Z,99170.80
2018-02-01T07:22:09.070Z,99178.35
2018-02-01T07:24:37.587Z,99172.80
2018-02-01T07:27:06.035Z,99183.31
2018-02-01T07:29:34.484Z,99174.41
2018-02-01T07:32:03.028Z,99175.90
2018-02-01T07:34:31.478Z,99180.76
2018-02-01T07:36:59.930Z,99184.50
2018-02-01T07:39:28.344Z,99184.27
2018-02-01T07:41:57.173Z,99188.59
2018-02-01T07:44:25.826Z,99190.00
2018-02-01T07:47:00.265Z,99192.34
2018-02-01T07:49:28.787Z,99194.24
2018-02-01T07:51:57.314Z,99202.95
2018-02-01T07:54:25.920Z,99196.34
2018-02-01T07:56:54.435Z,99198.25
2018-02-01T07:59:22.943Z,99201.08
2018-02-01T08:01:51.520Z,99206.05
2018-02-01T08:04:20.139Z,99209.95
2018-02-01T08:06:48.836Z,99205.20
2018-02-01T08:09:17.671Z,99208.77
2018-02-01T08:11:46.408Z,99205.52
2018-02-01T08:14:14.907Z,99201.86
2018-02-01T08:16:43.378Z,99209.00
2018-02-01T08:19:11.825Z,99219.34
2018-02-01T08:21:41.358Z,99215.65
2018-02-01T08:24:09.796Z,99209.69
2018-02-01T08:26:38.240Z,99209.30
2018-02-01T08:29:06.662Z,99210.09
2018-02-01T08:31:35.114Z,99206.42
2018-02-01T08:34:03.631Z,99209.27
2018-02-01T08:36:32.141Z,99190.73
2018-02-01T08:39:00.692Z,99208.48
2018-02-01T08:41:29.174Z,99210.69
2018-02-01T08:43:57.719Z,99217.29
2018-02-01T08:46:26.270Z,99219.06
2018-02-01T08:48:54.875Z,99211.16
2018-02-01T08:51:23.367Z,99217.93
2018-02-01T08:53:52.085Z,99224.73
2018-02-01T08:56:21.087Z,99218.30
2018-02-01T08:58:49.667Z,99216.98
2018-02-01T09:01:18.324Z,99218.81
2018-02-01T09:03:46.797Z,99220.08
2018-02-01T09:06:15.260Z,99218.10
2018-02-01T09:08:43.689Z,99216.81
2018-02-01T09:11:12.201Z,99220.63
2018-02-01T09:13:40.628Z,99220.63
2018-02-01T09:16:09.056Z,99215.20
2018-02-01T09:18:37.533Z,99220.22
2018-02-01T09:21:05.949Z,99221.08
2018-02-01T09:23:34.471Z,99222.13
2018-02-01T09:26:02.979Z,99216.22
2018-02-01T09:28:31.405Z,99219.06
2018-02-01T09:31:00.449Z,99221.56
2018-02-01T09:33:29.265Z,99215.06
2018-02-01T09:35:57.754Z,99213.99
2018-02-01T09:38:26.276Z,99214.67
2018-02-01T09:40:54.776Z,99202.52
2018-02-01T09:43:23.260Z,99227.69
2018-02-01T09:45:51.836Z,99221.39
2018-02-01T09:48:20.372Z,99217.80
2018-02-01T09:50:48.952Z,99220.84
2018-02-01T09:53:18.921Z,99213.95
2018-02-01T09:55:47.729Z,99218.42
2018-02-01T09:58:16.233Z,99220.19
2018-02-01T10:00:44.695Z,99211.98
2018-02-01T10:03:13.505Z,99225.07
2018-02-01T10:05:41.939Z,99213.03
2018-02-01T10:08:10.343Z,99216.95
2018-02-01T10:10:39.713Z,99225.70
2018-02-01T10:13:08.173Z,99224.08
2018-02-01T10:15:36.694Z,99234.11
2018-02-01T10:18:05.310Z,99229.00
2018-02-01T10:20:33.714Z,99232.06
2018-02-01T10:23:02.129Z,99241.52
2018-02-01T10:25:30.641Z,99245.91
2018-02-01T10:27:59.080Z,99240.39
2018-02-01T10:30:27.588Z,99238.40
2018-02-01T10:32:56.141Z,99238.19
2018-02-01T10:35:24.656Z,99241.31
2018-02-01T10:37:53.517Z,99249.06
2018-02-01T10:40:22.305Z,99250.73
2018-02-01T10:42:51.053Z,99234.77
2018-02-01T10:45:20.047Z,99240.67
2018-02-01T10:47:49.086Z,99246.32
2018-02-01T10:50:17.797Z,99252.55
2018-02-01T10:52:46.277Z,99242.53
2018-02-01T10:55:14.822Z,99244.95
2018-02-01T10:57:44.340Z,99251.17
2018-02-01T11:00:12.786Z,99237.16
2018-02-01T11:02:41.244Z,99226.27
2018-02-01T11:05:09.705Z,99230.79
2018-02-01T11:07:38.104Z,99233.20
2018-02-01T11:10:06.740Z,99241.59
2018-02-01T11:12:35.228Z,99248.64
2018-02-01T11:15:03.697Z,99247.87
2018-02-01T11:17:32.360Z,99252.91
2018-02-01T11:20:00.930Z,99244.33
2018-02-01T11:22:29.424Z,99250.03
2018-02-01T11:24:57.929Z,99238.30
2018-02-01T11:27:26.455Z,99245.28
2018-02-01T11:29:55.064Z,99247.27
2018-02-01T11:32:23.998Z,99249.40
2018-02-01T11:34:52.611Z,99248.94
2018-02-01T11:37:21.056Z,99233.66
2018-02-01T11:39:49.609Z,99235.00
2018-02-01T11:42:18.854Z,99233.91
2018-02-01T11:44:47.369Z,99243.89
2018-02-01T11:47:15.820Z,99235.23
2018-02-01T11:49:44.212Z,99241.05
2018-02-01T11:52:12.624Z,99246.13
2018-02-01T11:54:41.069Z,99241.67
2018-02-01T11:57:09.488Z,99244.07
2018-02-01T11:59:37.988Z,99233.77
2018-02-01T12:02:06.420Z,99236.78
2018-02-01T12:04:34.952Z,99234.75
2018-02-01T12:07:03.388Z,99234.09
2018-02-01T12:09:31.811Z,99236.23
2018-02-01T12:12:00.231Z,99248.89
2018-02-01T12:14:28.665Z,99238.84
2018-02-01T12:16:58.110Z,99245.31
2018-02-01T12:19:26.555Z,99240.68
2018-02-01T12:21:55.038Z,99250.61
2018-02-01T12:24:23.848Z,99249.52
2018-02-01T12:26:52.316Z,99241.94
2018-02-01T12:29:20.746Z,99240.08
2018-02-01T12:31:49.274Z,99243.55
2018-02-01T12:34:17.983Z,99245.83
2018-02-01T12:36:46.437Z,99241.77
2018-02-01T12:39:14.880Z,99251.45
2018-02-01T12:41:43.289Z,99240.34
2018-02-01T12:44:11.709Z,99249.28
2018-02-01T12:46:40.157Z,99246.41
2018-02-01T12:49:08.585Z,99246.02
2018-02-01T12:51:37.007Z,99247.66
2018-02-01T12:54:05.751Z,99254.63
2018-02-01T12:56:34.180Z,99253.50
2018-02-01T12:59:02.637Z,99264.62
2018-02-01T13:01:31.358Z,99260.00
2018-02-01T13:04:00.741Z,99263.72
2018-02-01T13:06:29.198Z,99263.86
2018-02-01T13:08:57.722Z,99268.64
2018-02-01T13:11:26.196Z,99267.58
2018-02-01T13:13:54.837Z,99272.81
2018-02-01T13:16:23.407Z,99269.28
2018-02-01T13:18:51.943Z,99272.80
2018-02-01T13:21:20.907Z,99268.19
2018-02-01T13:23:49.452Z,99272.86
2018-02-01T13:26:18.029Z,99277.51
2018-02-01T13:28:46.468Z,99271.58
2018-02-01T13:31:14.967Z,99278.47
2018-02-01T13:33:44.299Z,99274.80
2018-02-01T13:36:12.877Z,99265.13
2018-02-01T13:38:41.523Z,99264.58
2018-02-01T13:41:10.355Z,99257.55
2018-02-01T13:43:38.882Z,99259.59
2018-02-01T13:46:07.481Z,99254.36
2018-02-01T13:48:36.780Z,99254.70
2018-02-01T13:51:05.219Z,99266.86
2018-02-01T13:53:33.653Z,99259.58
2018-02-01T13:56:02.223Z,99257.56
2018-02-01T13:58:30.662Z,99260.42
2018-02-01T14:00:59.878Z,99259.58
2018-02-01T14:03:28.389Z,99264.09
2018-02-01T14:05:56.865Z,99260.13
2018-02-01T14:08:25.353Z,99260.67
2018-02-01T14:10:53.964Z,99256.45
2018-02-01T14:13:22.545Z,99253.77
2018-02-01T14:15:52.152Z,99264.16
2018-02-01T14:18:20.606Z,99261.69
2018-02-01T14:20:49.190Z,99260.97
2018-02-01T14:23:18.798Z,99261.57
2018-02-01T14:25:47.229Z,99259.58
2018-02-01T14:28:15.713Z,99261.20
2018-02-01T14:30:44.168Z,99269.03
2018-02-01T14:33:12.578Z,99272.39
2018-02-01T14:35:40.978Z,99271.85
2018-02-01T14:38:09.430Z,99273.65
2018-02-01T14:40:37.857Z,99269.11
2018-02-01T14:43:06.322Z,99271.57
2018-02-01T14:45:34.842Z,99279.27
2018-02-01T14:48:03.295Z,99274.84
2018-02-01T14:50:31.699Z,99272.10
2018-02-01T14:53:00.138Z,99269.37
2018-02-01T14:55:28.586Z,99268.59
2018-02-01T14:57:57.220Z,99268.22
2018-02-01T15:00:25.710Z,99271.14
2018-02-01T15:02:54.181Z,99277.02
2018-02-01T15:05:22.777Z,99282.98
2018-02-01T15:07:51.509Z,99278.94
2018-02-01T15:10:20.188Z,99285.42
2018-02-01T15:12:49.208Z,99288.34
2018-02-01T15:15:17.825Z,99278.77
2018-02-01T15:17:46.225Z,99285.08
2018-02-01T15:20:14.657Z,99284.23
2018-02-01T15:22:43.497Z,99297.31
2018-02-01T15:25:11.917Z,99290.50
2018-02-01T15:27:40.774Z,99292.13
2018-02-01T15:30:09.272Z,99293.27
2018-02-01T15:32:37.692Z,99289.78
2018-02-01T15:35:06.128Z,99290.20
2018-02-01T15:37:34.614Z,99290.06
2018-02-01T15:40:03.061Z,99286.57
2018-02-01T15:42:31.521Z,99287.59
2018-02-01T15:45:00.182Z,99284.80
2018-02-01T15:47:28.791Z,99274.22
2018-02-01T15:49:57.376Z,99274.97
2018-02-01T15:52:26.031Z,99273.71
2018-02-01T15:54:54.995Z,99270.53
2018-02-01T15:57:23.561Z,99260.04
2018-02-01T15:59:52.631Z,99260.20
2018-02-01T16:02:21.324Z,99257.87
2018-02-01T16:04:50.056Z,99263.22
2018-02-01T16:07:19.246Z,99257.31
2018-02-01T16:09:47.781Z,99262.17
2018-02-01T16:12:16.270Z,99266.36
2018-02-01T16:14:44.761Z,99264.02
2018-02-01T16:17:13.219Z,99261.88
2018-02-01T16:19:41.755Z,99263.63
2018-02-01T16:22:10.315Z,99263.77
2018-02-01T16:24:38.734Z,99263.73
2018-02-01T16:27:08.693Z,99263.46
2018-02-01T16:29:37.376Z,99270.66
2018-02-01T16:32:05.832Z,99264.16
2018-02-01T16:34:34.285Z,99259.83
2018-02-01T16:37:02.793Z,99261.13
2018-02-01T16:39:31.215Z,99269.41
2018-02-01T16:41:59.983Z,99277.41
2018-02-01T16:44:28.476Z,99277.05
2018-02-01T16:46:56.976Z,99283.22
2018-02-01T16:49:25.588Z,99282.75
2018-02-01T16:51:54.195Z,99284.55
2018-02-01T16:54:23.280Z,99279.63
2018-02-01T16:56:52.566Z,99275.83
2018-02-01T16:59:21.297Z,99266.51
2018-02-01T17:01:50.005Z,99260.78
2018-02-01T17:04:18.566Z,99265.38
2018-02-01T17:06:47.076Z,99264.75
2018-02-01T17:09:15.529Z,99259.21
2018-02-01T17:11:43.945Z,99261.27
2018-02-01T17:14:12.452Z,99267.16
2018-02-01T17:16:40.921Z,99264.67
2018-02-01T17:19:09.314Z,99266.00
2018-02-01T17:21:37.755Z,99266.69
2018-02-01T17:24:06.424Z,99271.33
2018-02-01T17:26:34.900Z,99278.44
2018-02-01T17:29:03.383Z,99274.05
2018-02-01T17:31:31.818Z,99285.81
2018-02-01T17:34:00.280Z,99274.30
2018-02-01T17:36:29.028Z,99263.23
2018-02-01T17:38:58.330Z,99273.27
2018-02-01T17:41:27.143Z,99270.25
2018-02-01T17:43:55.942Z,99275.61
2018-02-01T17:46:24.546Z,99274.29
2018-02-01T17:48:53.171Z,99273.81
2018-02-01T17:51:21.954Z,99286.52
2018-02-01T17:53:50.834Z,99280.84
2018-02-01T17:56:19.595Z,99284.14
2018-02-01T17:58:48.468Z,99288.62
2018-02-01T18:01:16.914Z,99275.48
2018-02-01T18:03:45.360Z,99278.28
2018-02-01T18:06:13.816Z,99274.16
2018-02-01T18:08:42.262Z,99279.66
2018-02-01T18:11:10.755Z,99281.12
2018-02-01T18:13:39.570Z,99277.67
2018-02-01T18:16:08.006Z,99278.67
2018-02-01T18:18:36.697Z,99278.67
2018-02-01T18:21:05.134Z,99276.52
2018-02-01T18:23:33.597Z,99277.89
2018-02-01T18:26:03.074Z,99278.44
2018-02-01T18:28:31.846Z,99276.95
2018-02-01T18:31:00.411Z,99282.13
2018-02-01T18:33:28.837Z,99277.48
2018-02-01T18:35:57.434Z,99276.02
2018-02-01T18:38:26.014Z,99282.23
2018-02-01T18:40:54.577Z,99275.22
2018-02-01T18:43:23.211Z,99285.25
2018-02-01T18:45:51.847Z,99284.48
2018-02-01T18:48:20.406Z,99284.44
2018-02-01T20:12:46.801Z,99283.41
2018-02-01T20:15:15.249Z,99271.09
2018-02-01T20:17:43.672Z,99263.12
2018-02-01T20:20:12.125Z,99270.61
2018-02-01T20:22:40.552Z,99268.48
2018-02-01T20:25:08.988Z,99266.47
2018-02-01T20:27:37.434Z,99262.23
2018-02-01T20:30:06.681Z,99260.54
2018-02-01T20:32:35.146Z,99249.77
2018-02-01T20:35:03.606Z,99251.53
2018-02-01T20:37:32.005Z,99269.33
2018-02-01T20:40:00.484Z,99261.72
2018-02-01T20:42:28.956Z,99260.88
2018-02-01T20:44:57.427Z,99260.41
2018-02-01T20:47:25.978Z,99260.83
2018-02-01T20:49:54.680Z,99275.13
2018-02-01T20:52:23.499Z,99278.35
2018-02-01T20:54:51.989Z,99272.23
2018-02-01T20:57:20.775Z,99267.00
2018-02-01T20:59:53.179Z,99273.38
2018-02-01T21:02:22.108Z,99263.91
2018-02-01T21:04:50.902Z,99255.98
2018-02-01T21:07:28.235Z,99264.58
2018-02-01T21:09:56.883Z,99268.48
2018-02-01T21:12:25.391Z,99257.41
2018-02-01T21:14:54.178Z,99260.90
2018-02-01T21:17:22.793Z,99258.68
2018-02-01T21:19:51.376Z,99258.33
2018-02-01T21:22:20.247Z,99265.76
2018-02-01T21:24:49.928Z,99264.28
2018-02-01T21:27:18.540Z,99273.38
2018-02-01T21:29:47.192Z,99279.86
2018-02-01T21:32:16.809Z,99278.72
2018-02-01T21:34:45.264Z,99276.38
2018-02-01T21:37:13.670Z,99266.95
2018-02-01T21:39:42.501Z,99278.06
2018-02-01T21:42:10.927Z,99269.48
2018-02-01T21:44:39.456Z,99279.64
2018-02-01T21:47:07.911Z,99281.07
2018-02-01T21:49:36.329Z,99273.52
2018-02-01T21:52:04.786Z,99283.19
2018-02-01T21:54:33.272Z,99291.00
2018-02-01T21:57:02.043Z,99283.42
2018-02-01T22:02:06.764Z,99294.02
2018-02-01T22:04:35.185Z,99292.30
2018-02-01T22:07:03.688Z,99286.17
2018-02-01T22:09:32.427Z,99291.94
2018-02-01T22:12:00.930Z,99281.97
2018-02-01T22:14:29.583Z,99287.73
2018-02-01T22:16:58.041Z,99286.11
2018-02-01T22:19:26.627Z,99282.20
2018-02-01T22:21:55.237Z,99288.10
2018-02-01T22:24:24.039Z,99284.42
2018-02-01T22:26:52.603Z,99285.59
2018-02-01T22:29:21.281Z,99280.14
2018-02-01T22:31:49.877Z,99283.89
2018-02-01T22:34:18.456Z,99276.40
2018-02-01T22:36:46.909Z,99275.64
2018-02-01T22:39:15.365Z,99278.23
2018-02-01T22:41:43.797Z,99279.67
2018-02-01T22:44:12.621Z,99280.34
2018-02-01T22:46:41.177Z,99284.30
2018-02-01T22:49:09.617Z,99290.84
2018-02-01T22:51:38.064Z,99292.80
2018-02-01T22:54:06.840Z,99297.17
2018-02-01T22:56:35.355Z,99294.33
2018-02-01T22:59:03.779Z,99294.53
2018-02-01T23:01:32.330Z,99301.23
2018-02-01T23:04:00.840Z,99298.87
2018-02-01T23:06:29.418Z,99297.13
2018-02-01T23:08:58.248Z,99295.64
2018-02-01T23:11:26.826Z,99294.17
2018-02-01T23:13:55.585Z,99299.45
2018-02-01T23:16:24.366Z,99298.83
2018-02-01T23:18:53.042Z,99311.59
2018-02-01T23:21:21.570Z,99308.31
2018-02-01T23:23:50.379Z,99313.11
2018-02-01T23:26:18.888Z,99308.68
2018-02-01T23:28:47.424Z,99316.70
2018-02-01T23:31:15.894Z,99311.38
2018-02-01T23:33:44.505Z,99309.59
2018-02-01T23:36:15.774Z,99305.77
2018-02-01T23:38:51.376Z,99309.64
2018-02-01T23:41:20.149Z,99300.77
2018-02-01T23:43:48.638Z,99311.32
2018-02-01T23:46:17.496Z,99305.37
2018-02-01T23:48:46.296Z,99301.13
2018-02-01T23:51:14.738Z,99301.88
2018-02-01T23:53:43.321Z,99307.69
2018-02-01T23:56:11.821Z,99305.98
2018-02-01T23:58:40.495Z,99306.58
